Time;durP1;ratioP1;P1;durP2;ratioP2;P2;SDS_P1;SDS_P2;PMS_P1;PMS_P2;Temp;Humidity;BMP_temperature;BMP_pressure;BME280_temperature;BME280_humidity;BME280_pressure;Samples;Min_cycle;Max_cycle;Signal;HPM_P1;HPM_P2
2023/04/17 00:01:11;;;;;;;25.90;16.53;;;;;;;;;;4998675;28;20490;-95
2023/04/17 00:03:37;;;;;;;24.00;17.03;;;;;;;;;;4982172;28;20444;-95
2023/04/17 00:06:04;;;;;;;25.27;15.87;;;;;;;;;;4982975;28;20506;-96
2023/04/17 00:08:30;;;;;;;27.50;18.20;;;;;;;;;;4984413;28;20441;-95
2023/04/17 00:10:56;;;;;;;23.90;15.13;;;;;;;;;;4982933;28;21028;-95
2023/04/17 00:13:22;;;;;;;24.40;15.60;;;;;;;;;;4982943;28;20465;-95
2023/04/17 00:15:48;;;;;;;23.73;15.53;;;;;;;;;;4986943;28;20449;-96
2023/04/17 00:18:14;;;;;;;21.60;15.73;;;;;;;;;;4982380;28;20440;-92
2023/04/17 00:20:40;;;;;;;24.03;16.10;;;;;;;;;;4978025;28;20469;-93
2023/04/17 00:23:06;;;;;;;21.03;15.00;;;;;;;;;;4980240;28;20437;-95
2023/04/17 00:25:32;;;;;;;28.03;16.97;;;;;;;;;;4980106;28;20449;-95
2023/04/17 00:27:58;;;;;;;22.33;15.97;;;;;;;;;;4977850;28;20444;-94
2023/04/17 00:30:24;;;;;;;22.87;16.67;;;;;;;;;;4984437;28;20935;-95
2023/04/17 00:32:50;;;;;;;26.73;15.77;;;;;;;;;;4981222;28;20471;-95
2023/04/17 00:35:16;;;;;;;23.23;15.50;;;;;;;;;;4981685;28;20437;-96
2023/04/17 00:37:42;;;;;;;26.33;15.97;;;;;;;;;;4963587;28;20456;-96
2023/04/17 00:40:08;;;;;;;23.10;15.73;;;;;;;;;;4976476;28;20439;-95
2023/04/17 00:42:34;;;;;;;22.70;15.30;;;;;;;;;;4982098;28;20417;-96
2023/04/17 00:45:00;;;;;;;23.17;15.07;;;;;;;;;;4984363;28;20455;-95
2023/04/17 00:47:26;;;;;;;24.23;17.77;;;;;;;;;;4983069;28;20448;-96
2023/04/17 00:49:52;;;;;;;22.67;14.80;;;;;;;;;;4980834;28;20519;-96
2023/04/17 00:52:21;;;;;;;18.97;15.00;;;;;;;;;;4964742;28;20460;-96
2023/04/17 00:54:47;;;;;;;26.80;16.10;;;;;;;;;;4981347;28;20445;-96
2023/04/17 00:57:13;;;;;;;19.30;13.90;;;;;;;;;;4982182;28;20445;-96
2023/04/17 00:59:39;;;;;;;24.70;15.23;;;;;;;;;;4967320;28;20902;-94
2023/04/17 01:02:05;;;;;;;20.47;14.73;;;;;;;;;;4982916;28;21143;-96
2023/04/17 01:04:31;;;;;;;23.40;14.63;;;;;;;;;;4992266;28;20449;-93
2023/04/17 01:06:59;;;;;;;22.73;14.50;;;;;;;;;;4979700;28;20469;-96
2023/04/17 01:09:25;;;;;;;26.23;13.80;;;;;;;;;;4979551;28;20816;-95
2023/04/17 01:11:50;;;;;;;19.07;12.97;;;;;;;;;;4995929;28;20477;-95
2023/04/17 01:14:17;;;;;;;20.37;13.90;;;;;;;;;;4982314;28;20433;-96
2023/04/17 01:16:44;;;;;;;21.17;13.23;;;;;;;;;;4998681;28;20528;-93
2023/04/17 01:19:11;;;;;;;19.50;13.90;;;;;;;;;;5000430;28;20441;-96
2023/04/17 01:21:36;;;;;;;19.17;15.67;;;;;;;;;;4985181;28;20895;-95
2023/04/17 01:24:03;;;;;;;22.23;14.40;;;;;;;;;;4980737;28;20473;-92
2023/04/17 01:26:29;;;;;;;21.50;14.60;;;;;;;;;;4976491;28;21023;-95
2023/04/17 01:28:56;;;;;;;21.77;15.20;;;;;;;;;;4997431;28;20478;-92
2023/04/17 01:31:22;;;;;;;21.30;15.47;;;;;;;;;;4982525;28;20440;-96
2023/04/17 01:33:48;;;;;;;22.90;14.93;;;;;;;;;;4983218;28;20433;-92
2023/04/17 01:36:14;;;;;;;24.53;16.37;;;;;;;;;;4996043;28;20432;-96
2023/04/17 01:38:40;;;;;;;22.20;14.77;;;;;;;;;;4982810;28;20433;-96
2023/04/17 01:41:09;;;;;;;17.77;14.20;;;;;;;;;;4981906;28;20464;-96
2023/04/17 01:43:39;;;;;;;21.07;13.07;;;;;;;;;;4981130;28;20425;-95
2023/04/17 01:46:05;;;;;;;24.23;14.97;;;;;;;;;;4976932;28;20467;-96
2023/04/17 01:48:31;;;;;;;20.83;13.90;;;;;;;;;;4984619;28;20433;-95
2023/04/17 01:50:57;;;;;;;21.70;16.80;;;;;;;;;;4999566;28;20899;-94
2023/04/17 01:53:23;;;;;;;22.40;14.30;;;;;;;;;;4977493;28;20445;-96
2023/04/17 01:55:49;;;;;;;20.30;14.43;;;;;;;;;;4980084;28;20481;-96
2023/04/17 01:58:15;;;;;;;24.77;16.07;;;;;;;;;;4966131;28;20454;-96
2023/04/17 02:00:41;;;;;;;24.43;15.30;;;;;;;;;;4955174;28;20450;-96
2023/04/17 02:03:08;;;;;;;25.03;15.60;;;;;;;;;;4963359;28;20550;-96
2023/04/17 02:05:34;;;;;;;23.40;14.50;;;;;;;;;;4949215;29;20455;-92
2023/04/17 02:08:00;;;;;;;22.43;15.50;;;;;;;;;;4980335;28;20450;-96
2023/04/17 02:10:26;;;;;;;23.20;15.90;;;;;;;;;;4970065;28;20490;-96
2023/04/17 02:12:53;;;;;;;24.63;14.70;;;;;;;;;;4952842;28;20537;-96
2023/04/17 02:15:19;;;;;;;22.03;14.53;;;;;;;;;;4965942;28;20439;-94
2023/04/17 02:17:45;;;;;;;24.23;15.93;;;;;;;;;;4948317;28;20796;-95
2023/04/17 02:20:11;;;;;;;25.97;15.57;;;;;;;;;;4951562;28;20438;-96
2023/04/17 02:22:37;;;;;;;21.33;15.50;;;;;;;;;;4951351;28;20947;-96
2023/04/17 02:25:03;;;;;;;23.70;15.37;;;;;;;;;;4951482;28;20537;-93
2023/04/17 02:27:29;;;;;;;24.10;16.13;;;;;;;;;;4976818;28;20433;-96
2023/04/17 02:29:56;;;;;;;23.10;14.80;;;;;;;;;;4984970;28;21019;-92
2023/04/17 02:32:22;;;;;;;25.30;16.37;;;;;;;;;;4985753;28;21016;-94
2023/04/17 02:34:48;;;;;;;24.43;16.53;;;;;;;;;;4986523;28;21007;-94
2023/04/17 02:37:14;;;;;;;30.83;16.77;;;;;;;;;;4984228;28;20448;-95
2023/04/17 02:39:40;;;;;;;25.90;15.60;;;;;;;;;;4985964;28;20472;-96
2023/04/17 02:42:06;;;;;;;22.07;15.73;;;;;;;;;;4983870;28;20476;-96
2023/04/17 02:44:32;;;;;;;21.63;15.80;;;;;;;;;;4985887;28;20859;-93
2023/04/17 02:46:58;;;;;;;25.67;16.63;;;;;;;;;;4985420;28;20440;-94
2023/04/17 02:49:24;;;;;;;20.73;15.00;;;;;;;;;;4983196;28;20425;-95
2023/04/17 02:51:50;;;;;;;25.20;17.03;;;;;;;;;;4983075;28;20465;-95
2023/04/17 02:54:16;;;;;;;21.30;16.47;;;;;;;;;;4986567;28;20421;-96
2023/04/17 02:56:42;;;;;;;20.60;14.53;;;;;;;;;;5001930;28;20948;-96
2023/04/17 02:59:09;;;;;;;24.97;16.93;;;;;;;;;;4990086;28;20447;-95
2023/04/17 03:01:37;;;;;;;23.60;14.83;;;;;;;;;;4990642;28;20447;-95
2023/04/17 03:04:04;;;;;;;21.97;16.13;;;;;;;;;;4993794;28;20448;-96
2023/04/17 03:06:30;;;;;;;26.03;15.87;;;;;;;;;;4986007;28;20441;-92
2023/04/17 03:08:56;;;;;;;21.37;14.80;;;;;;;;;;4995003;28;20451;-93
2023/04/17 03:11:22;;;;;;;25.83;15.90;;;;;;;;;;4986489;28;20593;-93
2023/04/17 03:13:48;;;;;;;26.70;16.53;;;;;;;;;;4996340;28;20507;-92
2023/04/17 03:16:14;;;;;;;22.47;14.97;;;;;;;;;;4977571;28;20461;-94
2023/04/17 03:18:40;;;;;;;21.70;15.67;;;;;;;;;;4980417;28;20439;-93
2023/04/17 03:21:06;;;;;;;19.17;14.43;;;;;;;;;;4982351;28;20470;-92
2023/04/17 03:23:33;;;;;;;23.37;14.80;;;;;;;;;;4998121;28;20452;-92
2023/04/17 03:25:59;;;;;;;19.47;14.30;;;;;;;;;;4990596;28;20436;-92
2023/04/17 03:28:25;;;;;;;19.43;14.40;;;;;;;;;;4979347;28;20523;-94
2023/04/17 03:30:51;;;;;;;22.50;15.47;;;;;;;;;;4975655;28;20441;-93
2023/04/17 03:33:17;;;;;;;24.27;17.07;;;;;;;;;;4992477;28;20540;-93
2023/04/17 03:35:45;;;;;;;22.20;15.70;;;;;;;;;;4978701;28;20913;-92
2023/04/17 03:38:11;;;;;;;26.37;17.07;;;;;;;;;;4979661;28;20440;-92
2023/04/17 03:40:37;;;;;;;20.03;16.27;;;;;;;;;;4979075;28;20425;-91
2023/04/17 03:43:03;;;;;;;22.57;14.30;;;;;;;;;;4993930;28;20462;-92
2023/04/17 03:45:29;;;;;;;22.77;16.27;;;;;;;;;;4993186;28;20476;-92
2023/04/17 03:47:55;;;;;;;21.17;14.20;;;;;;;;;;4982351;28;20448;-91
2023/04/17 03:50:21;;;;;;;21.60;14.20;;;;;;;;;;4980122;28;20440;-92
2023/04/17 03:52:47;;;;;;;22.27;15.87;;;;;;;;;;4978271;28;20519;-92
2023/04/17 03:55:13;;;;;;;23.67;15.30;;;;;;;;;;4977047;28;20442;-92
2023/04/17 03:57:39;;;;;;;20.77;16.47;;;;;;;;;;4996055;28;20429;-93
2023/04/17 04:00:09;;;;;;;19.60;13.00;;;;;;;;;;4977285;28;20801;-91
2023/04/17 04:02:35;;;;;;;21.83;15.00;;;;;;;;;;4993927;28;20497;-92
2023/04/17 04:05:01;;;;;;;20.70;13.50;;;;;;;;;;4978938;28;21175;-93
2023/04/17 04:07:27;;;;;;;22.93;14.07;;;;;;;;;;4978621;28;20488;-91
2023/04/17 04:09:54;;;;;;;22.23;15.00;;;;;;;;;;4980453;28;20460;-91
2023/04/17 04:12:21;;;;;;;23.13;16.33;;;;;;;;;;4977366;28;20474;-92
2023/04/17 04:14:47;;;;;;;23.77;16.60;;;;;;;;;;4981093;28;20436;-91
2023/04/17 04:17:14;;;;;;;27.03;15.97;;;;;;;;;;4982082;28;20445;-90
2023/04/17 04:19:41;;;;;;;26.93;16.97;;;;;;;;;;4982110;28;20487;-91
2023/04/17 04:22:07;;;;;;;22.53;16.10;;;;;;;;;;4979084;28;20510;-92
2023/04/17 04:24:34;;;;;;;21.07;15.77;;;;;;;;;;4983332;28;20436;-89
2023/04/17 04:27:03;;;;;;;20.07;15.13;;;;;;;;;;4979971;28;20437;-90
2023/04/17 04:29:30;;;;;;;20.30;15.37;;;;;;;;;;4984178;28;20436;-90
2023/04/17 04:31:56;;;;;;;21.07;14.33;;;;;;;;;;4980949;28;20518;-91
2023/04/17 04:34:24;;;;;;;24.00;16.10;;;;;;;;;;4992964;28;20448;-96
2023/04/17 05:36:32;;;;;;;21.50;13.90;;;;;;;;;;5002571;28;20481;-95
2023/04/17 05:39:07;;;;;;;22.07;13.50;;;;;;;;;;5013966;28;20412;-95
2023/04/17 05:41:33;;;;;;;18.40;12.67;;;;;;;;;;5035310;28;20432;-95
2023/04/17 05:43:59;;;;;;;23.63;14.83;;;;;;;;;;5013721;28;20438;-93
2023/04/17 05:46:25;;;;;;;20.93;13.43;;;;;;;;;;5002846;28;20437;-93
2023/04/17 05:48:51;;;;;;;21.40;13.27;;;;;;;;;;4983915;28;20442;-94
2023/04/17 05:51:20;;;;;;;21.20;14.23;;;;;;;;;;4983840;28;20485;-94
2023/04/17 05:53:48;;;;;;;22.53;14.97;;;;;;;;;;5006059;28;20495;-93
2023/04/17 05:56:14;;;;;;;20.20;13.80;;;;;;;;;;4990047;28;21167;-93
2023/04/17 05:58:40;;;;;;;20.53;14.20;;;;;;;;;;5003421;28;21503;-93
2023/04/17 06:01:06;;;;;;;20.53;12.43;;;;;;;;;;4994240;28;20951;-91
2023/04/17 06:03:33;;;;;;;23.00;14.87;;;;;;;;;;4990909;28;20441;-96
2023/04/17 06:05:59;;;;;;;18.00;11.50;;;;;;;;;;4992204;28;20429;-91
2023/04/17 06:08:26;;;;;;;20.90;15.20;;;;;;;;;;4991404;28;21162;-93
2023/04/17 06:10:54;;;;;;;19.70;12.20;;;;;;;;;;4978927;28;20475;-90
2023/04/17 06:13:23;;;;;;;19.47;13.20;;;;;;;;;;4994397;28;20464;-90
2023/04/17 06:15:50;;;;;;;21.77;14.10;;;;;;;;;;4983079;28;20472;-92
2023/04/17 06:18:16;;;;;;;17.30;12.40;;;;;;;;;;5000986;28;20452;-94
2023/04/17 06:20:43;;;;;;;20.80;12.93;;;;;;;;;;4981671;28;20479;-91
2023/04/17 06:23:09;;;;;;;18.73;12.80;;;;;;;;;;5001350;28;20452;-94
2023/04/17 06:25:36;;;;;;;19.17;13.37;;;;;;;;;;4983191;28;20429;-92
2023/04/17 06:28:02;;;;;;;20.27;13.27;;;;;;;;;;4980802;28;20873;-91
2023/04/17 06:30:28;;;;;;;20.80;13.20;;;;;;;;;;4980664;28;20437;-91
2023/04/17 06:32:54;;;;;;;17.77;12.30;;;;;;;;;;4986492;28;20520;-93
2023/04/17 06:35:20;;;;;;;16.20;11.60;;;;;;;;;;4984323;28;20444;-94
2023/04/17 06:37:46;;;;;;;15.07;11.30;;;;;;;;;;4980159;28;20429;-94
2023/04/17 06:40:12;;;;;;;19.30;13.97;;;;;;;;;;4983129;28;20483;-94
2023/04/17 06:42:38;;;;;;;16.73;12.27;;;;;;;;;;5003260;28;20438;-92
2023/04/17 06:45:08;;;;;;;18.13;12.60;;;;;;;;;;5001154;28;20480;-93
2023/04/17 06:47:34;;;;;;;23.10;14.00;;;;;;;;;;4986255;28;20447;-94
2023/04/17 06:50:00;;;;;;;20.93;12.40;;;;;;;;;;4976820;28;20444;-93
2023/04/17 06:52:26;;;;;;;19.87;12.60;;;;;;;;;;4982676;28;20540;-96
2023/04/17 06:54:53;;;;;;;20.73;13.47;;;;;;;;;;4977553;28;20465;-92
2023/04/17 06:57:20;;;;;;;15.57;12.00;;;;;;;;;;4979929;28;20521;-92
2023/04/17 06:59:47;;;;;;;19.40;12.80;;;;;;;;;;4995617;28;20463;-94
2023/04/17 07:02:14;;;;;;;19.30;12.50;;;;;;;;;;4982515;28;20470;-95
2023/04/17 07:04:43;;;;;;;15.70;11.93;;;;;;;;;;5000472;28;20425;-94
2023/04/17 07:07:09;;;;;;;16.23;11.87;;;;;;;;;;4980328;28;20513;-93
2023/04/17 07:09:35;;;;;;;18.07;12.00;;;;;;;;;;4975570;28;20429;-93
2023/04/17 07:12:02;;;;;;;20.40;14.20;;;;;;;;;;4997502;28;21514;-93
2023/04/17 07:14:28;;;;;;;22.00;13.57;;;;;;;;;;4998384;28;20429;-95
2023/04/17 07:16:54;;;;;;;19.17;15.03;;;;;;;;;;4998086;28;20781;-94
2023/04/17 07:19:20;;;;;;;16.17;10.77;;;;;;;;;;4999610;28;20412;-93
2023/04/17 07:21:46;;;;;;;19.10;12.67;;;;;;;;;;4977077;28;20421;-93
2023/04/17 07:24:12;;;;;;;16.73;12.50;;;;;;;;;;4983280;28;20504;-92
2023/04/17 07:26:39;;;;;;;18.40;12.23;;;;;;;;;;4980149;28;20850;-93
2023/04/17 07:29:05;;;;;;;15.53;11.27;;;;;;;;;;4980205;28;20483;-95
2023/04/17 07:31:31;;;;;;;16.13;11.73;;;;;;;;;;4996858;28;20432;-94
2023/04/17 07:33:58;;;;;;;17.30;11.43;;;;;;;;;;4998858;28;20433;-95
2023/04/17 07:36:26;;;;;;;19.27;11.60;;;;;;;;;;4994490;28;20491;-92
2023/04/17 07:38:52;;;;;;;14.60;11.57;;;;;;;;;;4979730;28;20500;-92
2023/04/17 07:41:18;;;;;;;15.80;11.20;;;;;;;;;;4980529;28;20421;-92
2023/04/17 07:43:44;;;;;;;17.13;11.93;;;;;;;;;;4976648;28;20527;-91
2023/04/17 07:46:10;;;;;;;18.73;11.67;;;;;;;;;;4976670;28;20575;-91
2023/04/17 07:48:36;;;;;;;21.20;11.33;;;;;;;;;;4979253;28;20616;-92
2023/04/17 07:51:02;;;;;;;16.93;11.57;;;;;;;;;;4982066;28;20433;-92
2023/04/17 07:53:29;;;;;;;14.63;11.13;;;;;;;;;;4978944;28;20468;-92
2023/04/17 07:55:55;;;;;;;17.17;11.67;;;;;;;;;;4982698;28;20436;-92
2023/04/17 07:58:22;;;;;;;12.63;9.90;;;;;;;;;;4966563;28;20512;-91
2023/04/17 08:00:49;;;;;;;16.10;11.50;;;;;;;;;;4988232;28;20421;-91
2023/04/17 08:03:16;;;;;;;14.57;10.27;;;;;;;;;;4965010;28;20616;-92
2023/04/17 08:05:44;;;;;;;14.23;9.90;;;;;;;;;;4966849;28;20426;-92
2023/04/17 08:08:10;;;;;;;18.90;11.43;;;;;;;;;;4984551;28;20971;-92
2023/04/17 08:10:36;;;;;;;15.37;10.47;;;;;;;;;;4966920;28;20429;-92
2023/04/17 08:13:02;;;;;;;16.27;11.20;;;;;;;;;;4981274;28;21113;-92
2023/04/17 08:15:28;;;;;;;14.37;9.53;;;;;;;;;;4970270;28;20432;-92
2023/04/17 08:17:55;;;;;;;17.70;11.13;;;;;;;;;;4966408;28;20425;-93
2023/04/17 08:20:21;;;;;;;18.93;11.40;;;;;;;;;;4980059;28;21087;-92
2023/04/17 08:22:47;;;;;;;14.20;10.17;;;;;;;;;;4974807;28;20456;-92
2023/04/17 08:25:13;;;;;;;12.47;9.03;;;;;;;;;;4977481;28;20496;-92
2023/04/17 08:27:40;;;;;;;14.87;11.23;;;;;;;;;;4993545;28;20441;-93
2023/04/17 08:30:11;;;;;;;16.93;11.30;;;;;;;;;;4983513;28;20440;-92
2023/04/17 08:32:40;;;;;;;16.90;11.40;;;;;;;;;;4983136;28;20468;-91
2023/04/17 08:35:07;;;;;;;15.23;9.07;;;;;;;;;;4979333;28;20440;-92
2023/04/17 08:37:34;;;;;;;15.53;9.53;;;;;;;;;;4998146;28;21043;-91
2023/04/17 08:40:02;;;;;;;18.30;11.07;;;;;;;;;;5000665;28;20499;-93
2023/04/17 08:42:28;;;;;;;13.70;10.73;;;;;;;;;;4980948;28;21102;-92
2023/04/17 08:44:57;;;;;;;17.30;10.57;;;;;;;;;;4993052;28;20440;-92
2023/04/17 08:47:23;;;;;;;16.60;10.80;;;;;;;;;;4979498;28;20800;-92
2023/04/17 08:49:49;;;;;;;17.87;10.27;;;;;;;;;;4991816;28;20429;-92
2023/04/17 08:52:16;;;;;;;16.00;9.53;;;;;;;;;;4994457;28;20464;-92
2023/04/17 08:54:42;;;;;;;12.53;8.93;;;;;;;;;;4996806;28;20445;-92
2023/04/17 08:57:08;;;;;;;11.33;9.23;;;;;;;;;;4983007;28;21092;-92
2023/04/17 08:59:34;;;;;;;14.30;9.97;;;;;;;;;;4993477;28;20447;-92
2023/04/17 09:02:06;;;;;;;15.33;9.93;;;;;;;;;;4976670;28;20484;-92
2023/04/17 09:04:40;;;;;;;14.77;10.20;;;;;;;;;;4986158;28;20425;-93
2023/04/17 09:07:06;;;;;;;11.43;9.00;;;;;;;;;;4980602;28;20580;-93
2023/04/17 09:09:50;;;;;;;12.37;8.53;;;;;;;;;;5000260;28;21015;-93
2023/04/17 09:12:17;;;;;;;11.77;8.47;;;;;;;;;;5003528;28;20448;-88
2023/04/17 09:14:43;;;;;;;12.60;8.60;;;;;;;;;;4977780;28;20433;-88
2023/04/17 09:17:09;;;;;;;11.37;8.70;;;;;;;;;;4976241;28;20484;-88
2023/04/17 09:19:35;;;;;;;8.20;6.40;;;;;;;;;;4989392;28;20445;-88
2023/04/17 09:22:17;;;;;;;14.53;7.60;;;;;;;;;;4979351;28;20960;-88
2023/04/17 09:24:43;;;;;;;11.20;7.57;;;;;;;;;;4974624;28;20441;-89
2023/04/17 09:27:19;;;;;;;11.90;7.83;;;;;;;;;;4978505;28;20449;-88
2023/04/17 09:29:56;;;;;;;8.13;6.73;;;;;;;;;;4994448;28;20444;-88
2023/04/17 09:32:22;;;;;;;12.80;6.40;;;;;;;;;;4993975;28;20830;-90
2023/04/17 09:34:48;;;;;;;7.77;6.30;;;;;;;;;;4994823;28;20429;-90
2023/04/17 09:37:14;;;;;;;15.07;7.30;;;;;;;;;;4993595;28;20511;-90
2023/04/17 09:39:42;;;;;;;7.97;6.03;;;;;;;;;;4976715;28;20440;-90
2023/04/17 09:42:09;;;;;;;12.77;8.17;;;;;;;;;;4995838;28;21121;-90
2023/04/17 09:44:36;;;;;;;9.80;7.30;;;;;;;;;;4996405;28;20459;-87
2023/04/17 09:47:02;;;;;;;9.70;6.40;;;;;;;;;;4990732;28;20441;-89
2023/04/17 09:49:42;;;;;;;9.03;6.90;;;;;;;;;;4975004;28;20448;-89
2023/04/17 09:52:08;;;;;;;8.73;6.70;;;;;;;;;;4996912;28;20444;-89
2023/04/17 09:54:37;;;;;;;6.90;6.20;;;;;;;;;;4995848;28;20413;-89
2023/04/17 09:57:04;;;;;;;8.93;5.80;;;;;;;;;;4991666;28;20438;-89
2023/04/17 09:59:30;;;;;;;7.43;6.20;;;;;;;;;;4991523;28;21103;-91
2023/04/17 10:01:56;;;;;;;7.23;6.00;;;;;;;;;;4994362;28;20417;-88
2023/04/17 10:04:22;;;;;;;9.47;6.30;;;;;;;;;;4979503;28;20503;-88
2023/04/17 10:06:48;;;;;;;8.40;6.00;;;;;;;;;;4973736;28;20477;-89
2023/04/17 10:09:14;;;;;;;6.80;5.50;;;;;;;;;;4995162;28;20967;-89
2023/04/17 10:11:41;;;;;;;6.60;4.87;;;;;;;;;;4977291;28;20421;-89
2023/04/17 10:14:07;;;;;;;10.20;6.00;;;;;;;;;;4979015;28;20452;-89
2023/04/17 10:16:34;;;;;;;6.00;5.33;;;;;;;;;;4994485;28;20413;-87
2023/04/17 10:19:19;;;;;;;6.60;5.30;;;;;;;;;;4988444;28;20421;-88
2023/04/17 10:21:49;;;;;;;6.63;5.20;;;;;;;;;;4990163;28;20495;-89
2023/04/17 10:24:25;;;;;;;7.27;5.73;;;;;;;;;;4993234;28;20449;-89
2023/04/17 10:26:51;;;;;;;5.47;4.93;;;;;;;;;;4977788;28;20436;-89
2023/04/17 10:29:17;;;;;;;8.07;5.57;;;;;;;;;;4991778;28;20452;-87
2023/04/17 10:32:15;;;;;;;6.57;5.60;;;;;;;;;;4978187;28;20972;-89
2023/04/17 10:34:41;;;;;;;8.53;5.63;;;;;;;;;;4962513;28;20508;-88
2023/04/17 10:37:13;;;;;;;5.53;4.40;;;;;;;;;;4992600;28;20483;-88
2023/04/17 10:39:52;;;;;;;6.57;5.07;;;;;;;;;;4979084;28;20440;-88
2023/04/17 10:42:19;;;;;;;6.90;4.97;;;;;;;;;;5010326;28;20417;-89
2023/04/17 10:44:45;;;;;;;6.23;4.87;;;;;;;;;;4981278;28;20456;-89
2023/04/17 10:47:14;;;;;;;7.70;4.90;;;;;;;;;;4978871;28;20413;-89
2023/04/17 10:49:57;;;;;;;7.27;6.13;;;;;;;;;;4995134;28;20917;-89
2023/04/17 10:52:43;;;;;;;7.23;5.13;;;;;;;;;;4980386;28;20521;-89
2023/04/17 10:55:16;;;;;;;6.90;6.00;;;;;;;;;;5005065;28;20430;-89
2023/04/17 10:58:04;;;;;;;7.87;5.67;;;;;;;;;;4994501;28;20424;-89
2023/04/17 11:00:31;;;;;;;5.00;4.10;;;;;;;;;;4965537;28;20467;-89
2023/04/17 11:02:57;;;;;;;7.80;4.60;;;;;;;;;;5001895;28;21033;-88
2023/04/17 11:05:23;;;;;;;5.07;2.93;;;;;;;;;;4995881;28;20805;-89
2023/04/17 11:07:50;;;;;;;7.03;4.00;;;;;;;;;;4976559;28;20452;-89
2023/04/17 11:10:18;;;;;;;5.30;4.13;;;;;;;;;;4991516;28;20869;-89
2023/04/17 11:12:47;;;;;;;4.37;3.97;;;;;;;;;;4978539;28;20979;-89
2023/04/17 11:15:13;;;;;;;7.63;3.53;;;;;;;;;;4975066;28;20473;-89
2023/04/17 11:17:40;;;;;;;4.10;3.70;;;;;;;;;;4992299;28;20440;-89
2023/04/17 11:20:06;;;;;;;4.90;4.10;;;;;;;;;;4977562;28;20535;-89
2023/04/17 11:22:33;;;;;;;4.40;3.93;;;;;;;;;;4977520;28;20444;-90
2023/04/17 11:24:59;;;;;;;4.13;3.73;;;;;;;;;;4994843;28;20449;-89
2023/04/17 11:27:25;;;;;;;5.93;3.30;;;;;;;;;;4993935;28;20433;-89
2023/04/17 11:29:51;;;;;;;4.87;3.77;;;;;;;;;;4992423;28;20539;-91
2023/04/17 11:32:17;;;;;;;4.83;3.70;;;;;;;;;;4979482;28;20476;-89
2023/04/17 11:34:43;;;;;;;5.17;3.33;;;;;;;;;;4997611;28;21040;-89
2023/04/17 11:37:09;;;;;;;4.33;3.53;;;;;;;;;;4995378;28;20523;-89
2023/04/17 11:39:35;;;;;;;3.90;3.30;;;;;;;;;;4994968;28;20468;-89
2023/04/17 11:42:02;;;;;;;5.00;2.80;;;;;;;;;;4976293;28;20859;-89
2023/04/17 11:44:28;;;;;;;4.90;3.93;;;;;;;;;;4993605;28;20973;-88
2023/04/17 11:46:57;;;;;;;4.33;3.50;;;;;;;;;;4999057;28;20990;-88
2023/04/17 11:49:30;;;;;;;4.40;3.57;;;;;;;;;;4977824;28;20449;-87
2023/04/17 11:51:56;;;;;;;4.70;3.87;;;;;;;;;;4978101;28;20437;-89
2023/04/17 11:54:28;;;;;;;7.40;5.37;;;;;;;;;;4996785;28;20780;-89
2023/04/17 11:57:06;;;;;;;10.37;5.23;;;;;;;;;;5012454;28;20794;-89
2023/04/17 11:59:33;;;;;;;6.03;4.90;;;;;;;;;;4994848;28;20502;-88
2023/04/17 12:02:00;;;;;;;5.27;4.43;;;;;;;;;;4983987;28;20445;-89
2023/04/17 12:04:27;;;;;;;5.70;3.83;;;;;;;;;;4996647;28;20425;-89
2023/04/17 12:06:54;;;;;;;6.20;4.87;;;;;;;;;;4998053;28;20953;-89
2023/04/17 12:09:22;;;;;;;6.90;5.10;;;;;;;;;;4995244;28;20974;-88
2023/04/17 12:11:48;;;;;;;5.37;3.73;;;;;;;;;;4995643;28;20449;-91
2023/04/17 12:14:14;;;;;;;8.70;4.43;;;;;;;;;;4994958;28;20463;-89
2023/04/17 12:16:40;;;;;;;4.30;3.57;;;;;;;;;;4983188;28;20437;-89
2023/04/17 12:19:07;;;;;;;6.40;5.03;;;;;;;;;;4974713;28;20951;-89
2023/04/17 12:21:33;;;;;;;4.83;4.10;;;;;;;;;;4996209;28;20438;-89
2023/04/17 12:23:59;;;;;;;7.03;4.83;;;;;;;;;;4975951;28;20434;-89
2023/04/17 12:26:25;;;;;;;5.37;4.30;;;;;;;;;;4979262;28;20506;-88
2023/04/17 12:28:51;;;;;;;5.30;4.80;;;;;;;;;;4978285;28;20535;-88
2023/04/17 12:31:17;;;;;;;4.00;3.60;;;;;;;;;;4995257;28;20444;-88
2023/04/17 12:33:43;;;;;;;5.70;4.37;;;;;;;;;;4978842;28;20479;-88
2023/04/17 12:36:09;;;;;;;4.97;3.83;;;;;;;;;;4977552;28;20495;-88
2023/04/17 12:38:36;;;;;;;5.13;3.73;;;;;;;;;;4976785;28;20436;-88
2023/04/17 12:41:01;;;;;;;4.90;3.70;;;;;;;;;;4979501;28;20508;-88
2023/04/17 12:43:27;;;;;;;6.90;3.60;;;;;;;;;;4992042;28;20885;-88
2023/04/17 12:45:53;;;;;;;6.10;4.57;;;;;;;;;;4977532;28;20521;-88
2023/04/17 12:48:20;;;;;;;5.10;3.57;;;;;;;;;;4992406;28;20453;-88
2023/04/17 12:50:46;;;;;;;6.03;3.17;;;;;;;;;;4989673;28;20487;-89
2023/04/17 12:53:12;;;;;;;6.20;3.70;;;;;;;;;;4976730;28;20589;-89
2023/04/17 12:55:39;;;;;;;8.33;4.10;;;;;;;;;;4986530;28;20441;-88
2023/04/17 12:58:05;;;;;;;5.97;4.33;;;;;;;;;;4991125;28;20438;-89
2023/04/17 13:00:32;;;;;;;4.57;3.90;;;;;;;;;;4995914;28;21059;-89
2023/04/17 13:02:58;;;;;;;4.73;3.73;;;;;;;;;;4994215;28;20465;-89
2023/04/17 13:05:26;;;;;;;7.00;4.10;;;;;;;;;;4995149;28;20452;-90
2023/04/17 13:07:52;;;;;;;5.40;3.33;;;;;;;;;;4992689;28;20476;-91
2023/04/17 13:10:18;;;;;;;5.60;4.83;;;;;;;;;;4975655;28;20508;-90
2023/04/17 13:12:44;;;;;;;4.90;4.40;;;;;;;;;;4976275;28;20449;-90
2023/04/17 13:15:12;;;;;;;7.40;4.67;;;;;;;;;;4985435;28;20437;-90
2023/04/17 13:17:38;;;;;;;6.27;3.50;;;;;;;;;;4993814;28;20447;-90
2023/04/17 13:20:04;;;;;;;5.57;3.83;;;;;;;;;;4978633;28;20429;-90
2023/04/17 13:22:30;;;;;;;5.53;4.10;;;;;;;;;;4994920;28;20444;-90
2023/04/17 13:24:56;;;;;;;5.80;4.43;;;;;;;;;;4978340;28;20417;-90
2023/04/17 13:27:22;;;;;;;6.20;3.90;;;;;;;;;;4992610;28;20447;-89
2023/04/17 13:29:57;;;;;;;5.87;4.50;;;;;;;;;;4976298;28;20483;-92
2023/04/17 13:32:24;;;;;;;5.20;3.90;;;;;;;;;;5008773;28;20465;-92
2023/04/17 13:34:50;;;;;;;4.93;3.73;;;;;;;;;;4986247;28;20516;-93
2023/04/17 13:37:16;;;;;;;5.10;3.77;;;;;;;;;;4997671;28;20539;-91
2023/04/17 13:39:42;;;;;;;6.80;4.70;;;;;;;;;;4979362;28;20811;-92
2023/04/17 13:42:08;;;;;;;10.03;4.60;;;;;;;;;;4996402;28;20547;-93
2023/04/17 13:44:35;;;;;;;6.37;4.43;;;;;;;;;;4986800;28;20496;-93
2023/04/17 13:47:02;;;;;;;5.80;4.43;;;;;;;;;;4979865;28;20425;-93
2023/04/17 13:49:28;;;;;;;17.20;4.23;;;;;;;;;;4975917;28;20524;-91
2023/04/17 13:51:55;;;;;;;5.73;4.30;;;;;;;;;;4981158;28;20468;-94
2023/04/17 13:54:22;;;;;;;6.23;4.70;;;;;;;;;;4995785;28;20436;-91
2023/04/17 13:56:47;;;;;;;5.77;4.77;;;;;;;;;;4979766;28;20433;-92
2023/04/17 13:59:17;;;;;;;6.30;4.00;;;;;;;;;;4979904;28;20431;-91
2023/04/17 14:01:43;;;;;;;5.30;4.13;;;;;;;;;;4999657;28;20571;-90
2023/04/17 14:04:09;;;;;;;6.10;4.57;;;;;;;;;;4983898;28;20448;-90
2023/04/17 14:06:35;;;;;;;5.67;4.10;;;;;;;;;;4977627;28;20460;-90
2023/04/17 14:09:01;;;;;;;5.93;4.13;;;;;;;;;;4993462;28;20937;-92
2023/04/17 14:11:27;;;;;;;12.23;4.47;;;;;;;;;;4994028;28;20443;-91
2023/04/17 14:13:53;;;;;;;6.00;3.93;;;;;;;;;;4977557;28;20528;-89
2023/04/17 14:16:20;;;;;;;4.80;4.00;;;;;;;;;;4990913;28;20440;-89
2023/04/17 14:18:49;;;;;;;4.50;4.00;;;;;;;;;;4976421;28;20432;-89
2023/04/17 14:21:15;;;;;;;4.47;3.70;;;;;;;;;;4988535;28;20440;-90
2023/04/17 14:23:42;;;;;;;4.97;3.90;;;;;;;;;;4959494;28;20434;-90
2023/04/17 14:26:08;;;;;;;3.73;3.33;;;;;;;;;;4972853;28;20442;-88
2023/04/17 14:28:34;;;;;;;4.17;3.77;;;;;;;;;;4952909;28;20438;-89
2023/04/17 14:31:00;;;;;;;6.27;4.17;;;;;;;;;;4968122;28;20449;-88
2023/04/17 14:33:27;;;;;;;3.80;3.20;;;;;;;;;;4949891;28;20532;-88
2023/04/17 14:35:55;;;;;;;5.07;3.60;;;;;;;;;;4949428;28;20538;-88
2023/04/17 14:38:21;;;;;;;4.83;4.43;;;;;;;;;;4953244;28;20493;-88
2023/04/17 14:40:47;;;;;;;6.77;5.70;;;;;;;;;;4974693;28;20439;-88
2023/04/17 14:43:13;;;;;;;5.07;3.50;;;;;;;;;;4954805;28;20840;-89
2023/04/17 14:45:40;;;;;;;5.73;4.00;;;;;;;;;;4952015;28;20484;-89
2023/04/17 14:48:06;;;;;;;5.27;3.80;;;;;;;;;;4958049;28;21021;-89
2023/04/17 14:50:32;;;;;;;7.50;4.50;;;;;;;;;;4955171;28;20438;-89
2023/04/17 14:52:58;;;;;;;7.17;3.93;;;;;;;;;;4953239;28;20470;-89
2023/04/17 14:55:24;;;;;;;5.30;3.97;;;;;;;;;;4962835;28;20516;-89
2023/04/17 14:57:50;;;;;;;5.27;3.80;;;;;;;;;;5006178;28;21084;-88
2023/04/17 15:00:17;;;;;;;6.20;4.30;;;;;;;;;;4988649;28;20480;-88
2023/04/17 15:02:43;;;;;;;7.73;4.20;;;;;;;;;;4987575;28;20491;-88
2023/04/17 15:05:09;;;;;;;3.97;3.50;;;;;;;;;;4974775;28;20507;-88
2023/04/17 15:07:39;;;;;;;5.60;4.33;;;;;;;;;;4978429;28;20648;-89
2023/04/17 15:10:06;;;;;;;4.93;3.90;;;;;;;;;;4992846;28;20445;-88
2023/04/17 15:12:32;;;;;;;5.03;3.33;;;;;;;;;;4979940;28;20960;-89
2023/04/17 15:14:58;;;;;;;5.50;4.40;;;;;;;;;;4976007;28;20444;-89
2023/04/17 15:17:24;;;;;;;4.50;3.33;;;;;;;;;;4989433;28;20479;-89
2023/04/17 15:19:50;;;;;;;4.70;4.10;;;;;;;;;;4992277;28;20417;-89
2023/04/17 15:22:16;;;;;;;5.57;3.77;;;;;;;;;;4975622;28;20448;-89
2023/04/17 15:24:42;;;;;;;6.27;3.90;;;;;;;;;;4993820;28;20528;-89
2023/04/17 15:27:08;;;;;;;4.93;4.43;;;;;;;;;;4992337;28;20471;-89